Terminal Aerodrome Forecast
Issued by NWS Topeka, KS

Home | Current Version | Previous Version | Graphics & Text | Print | Product List | Glossary Off
Versions: 1 2 3 4 5 6 7 8 9 10 11 12 13

000
FTUS43 KTOP 200534
TAFTOP
TAF
KTOP 200534Z 2006/2106 20008KT P6SM BKN250
     FM201200 20007KT P6SM BKN012
     FM210000 14005KT 6SM BR BKN008=

USA.gov is the U.S. government's official web portal to all federal, state and local government web resources and services.